sensor_id;sensor_type;location;lat;lon;timestamp;P1;durP1;ratioP1;P2;durP2;ratioP2
66966;SDS011;53900;51.468;-2.586;2024-01-30T00:01:15;7.03;;;1.77;;
66966;SDS011;53900;51.468;-2.586;2024-01-30T00:03:41;2.85;;;1.17;;
66966;SDS011;53900;51.468;-2.586;2024-01-30T00:06:06;2.70;;;1.13;;
66966;SDS011;53900;51.468;-2.586;2024-01-30T00:08:32;4.65;;;1.23;;
66966;SDS011;53900;51.468;-2.586;2024-01-30T00:10:57;2.75;;;0.98;;
66966;SDS011;53900;51.468;-2.586;2024-01-30T00:13:22;3.08;;;1.00;;
66966;SDS011;53900;51.468;-2.586;2024-01-30T00:15:47;1.77;;;0.90;;
66966;SDS011;53900;51.468;-2.586;2024-01-30T00:18:13;1.80;;;0.85;;
66966;SDS011;53900;51.468;-2.586;2024-01-30T00:20:38;2.75;;;1.10;;
66966;SDS011;53900;51.468;-2.586;2024-01-30T00:23:03;1.63;;;0.95;;
66966;SDS011;53900;51.468;-2.586;2024-01-30T00:25:29;0.60;;;0.60;;
66966;SDS011;53900;51.468;-2.586;2024-01-30T00:27:54;4.57;;;1.48;;
66966;SDS011;53900;51.468;-2.586;2024-01-30T00:30:20;2.92;;;0.90;;
66966;SDS011;53900;51.468;-2.586;2024-01-30T00:32:46;4.90;;;0.93;;
66966;SDS011;53900;51.468;-2.586;2024-01-30T00:35:11;5.82;;;1.15;;
66966;SDS011;53900;51.468;-2.586;2024-01-30T00:37:36;2.58;;;1.00;;
66966;SDS011;53900;51.468;-2.586;2024-01-30T00:40:01;1.95;;;0.90;;
66966;SDS011;53900;51.468;-2.586;2024-01-30T00:42:27;2.50;;;1.20;;
66966;SDS011;53900;51.468;-2.586;2024-01-30T00:44:52;1.95;;;1.00;;
66966;SDS011;53900;51.468;-2.586;2024-01-30T00:47:17;2.63;;;0.85;;
66966;SDS011;53900;51.468;-2.586;2024-01-30T00:49:42;1.13;;;0.60;;
66966;SDS011;53900;51.468;-2.586;2024-01-30T00:52:08;1.48;;;0.50;;
66966;SDS011;53900;51.468;-2.586;2024-01-30T00:54:33;1.75;;;0.60;;
66966;SDS011;53900;51.468;-2.586;2024-01-30T00:56:59;4.72;;;0.40;;
66966;SDS011;53900;51.468;-2.586;2024-01-30T00:59:24;1.65;;;0.40;;
66966;SDS011;53900;51.468;-2.586;2024-01-30T01:01:50;2.17;;;0.50;;
66966;SDS011;53900;51.468;-2.586;2024-01-30T01:04:15;3.22;;;0.60;;
66966;SDS011;53900;51.468;-2.586;2024-01-30T01:06:40;1.77;;;0.63;;
66966;SDS011;53900;51.468;-2.586;2024-01-30T01:09:08;3.17;;;0.70;;
66966;SDS011;53900;51.468;-2.586;2024-01-30T01:11:34;1.85;;;0.93;;
66966;SDS011;53900;51.468;-2.586;2024-01-30T01:13:59;2.55;;;0.90;;
66966;SDS011;53900;51.468;-2.586;2024-01-30T01:16:24;4.80;;;1.10;;
66966;SDS011;53900;51.468;-2.586;2024-01-30T01:18:50;9.25;;;1.55;;
66966;SDS011;53900;51.468;-2.586;2024-01-30T01:21:15;6.43;;;1.55;;
66966;SDS011;53900;51.468;-2.586;2024-01-30T01:23:40;7.70;;;1.95;;
66966;SDS011;53900;51.468;-2.586;2024-01-30T01:26:05;6.18;;;2.50;;
66966;SDS011;53900;51.468;-2.586;2024-01-30T01:28:32;7.63;;;2.40;;
66966;SDS011;53900;51.468;-2.586;2024-01-30T01:30:57;8.13;;;1.95;;
66966;SDS011;53900;51.468;-2.586;2024-01-30T01:33:29;10.80;;;2.15;;
66966;SDS011;53900;51.468;-2.586;2024-01-30T01:35:55;6.57;;;2.10;;
66966;SDS011;53900;51.468;-2.586;2024-01-30T01:38:20;8.48;;;2.22;;
66966;SDS011;53900;51.468;-2.586;2024-01-30T01:40:46;5.68;;;2.00;;
66966;SDS011;53900;51.468;-2.586;2024-01-30T01:43:11;4.38;;;1.75;;
66966;SDS011;53900;51.468;-2.586;2024-01-30T01:45:36;8.13;;;2.20;;
66966;SDS011;53900;51.468;-2.586;2024-01-30T01:48:01;4.13;;;1.77;;
66966;SDS011;53900;51.468;-2.586;2024-01-30T01:50:27;5.72;;;1.80;;
66966;SDS011;53900;51.468;-2.586;2024-01-30T01:52:52;8.90;;;2.05;;
66966;SDS011;53900;51.468;-2.586;2024-01-30T01:55:18;2.03;;;1.60;;
66966;SDS011;53900;51.468;-2.586;2024-01-30T01:57:47;5.35;;;2.08;;
66966;SDS011;53900;51.468;-2.586;2024-01-30T02:00:12;4.40;;;2.08;;
66966;SDS011;53900;51.468;-2.586;2024-01-30T02:02:37;3.85;;;1.55;;
66966;SDS011;53900;51.468;-2.586;2024-01-30T02:05:04;4.38;;;1.88;;
66966;SDS011;53900;51.468;-2.586;2024-01-30T02:07:29;6.97;;;1.70;;
66966;SDS011;53900;51.468;-2.586;2024-01-30T02:09:54;4.55;;;1.40;;
66966;SDS011;53900;51.468;-2.586;2024-01-30T02:12:20;13.63;;;1.88;;
66966;SDS011;53900;51.468;-2.586;2024-01-30T02:14:46;4.60;;;1.85;;
66966;SDS011;53900;51.468;-2.586;2024-01-30T02:17:11;4.05;;;1.55;;
66966;SDS011;53900;51.468;-2.586;2024-01-30T02:19:37;2.22;;;1.30;;
66966;SDS011;53900;51.468;-2.586;2024-01-30T02:22:02;1.92;;;1.10;;
66966;SDS011;53900;51.468;-2.586;2024-01-30T02:24:27;6.60;;;1.27;;
66966;SDS011;53900;51.468;-2.586;2024-01-30T02:26:53;3.05;;;1.20;;
66966;SDS011;53900;51.468;-2.586;2024-01-30T02:29:18;3.58;;;1.27;;
66966;SDS011;53900;51.468;-2.586;2024-01-30T02:31:43;4.22;;;1.05;;
66966;SDS011;53900;51.468;-2.586;2024-01-30T02:34:10;2.70;;;0.93;;
66966;SDS011;53900;51.468;-2.586;2024-01-30T02:36:36;3.03;;;0.80;;
66966;SDS011;53900;51.468;-2.586;2024-01-30T02:39:01;1.42;;;0.63;;
66966;SDS011;53900;51.468;-2.586;2024-01-30T02:41:26;1.75;;;0.77;;
66966;SDS011;53900;51.468;-2.586;2024-01-30T02:43:51;1.52;;;0.70;;
66966;SDS011;53900;51.468;-2.586;2024-01-30T02:46:17;0.75;;;0.57;;
66966;SDS011;53900;51.468;-2.586;2024-01-30T02:48:42;0.35;;;0.35;;
66966;SDS011;53900;51.468;-2.586;2024-01-30T02:51:07;0.45;;;0.30;;
66966;SDS011;53900;51.468;-2.586;2024-01-30T02:53:32;1.10;;;0.32;;
66966;SDS011;53900;51.468;-2.586;2024-01-30T02:55:58;0.98;;;0.47;;
66966;SDS011;53900;51.468;-2.586;2024-01-30T02:58:23;0.28;;;0.28;;
66966;SDS011;53900;51.468;-2.586;2024-01-30T03:00:48;0.57;;;0.30;;
66966;SDS011;53900;51.468;-2.586;2024-01-30T03:03:13;0.80;;;0.13;;
66966;SDS011;53900;51.468;-2.586;2024-01-30T03:05:39;0.50;;;0.20;;
66966;SDS011;53900;51.468;-2.586;2024-01-30T03:08:04;0.20;;;0.20;;
66966;SDS011;53900;51.468;-2.586;2024-01-30T03:10:29;1.80;;;0.57;;
66966;SDS011;53900;51.468;-2.586;2024-01-30T03:12:55;1.85;;;0.30;;
66966;SDS011;53900;51.468;-2.586;2024-01-30T03:15:20;0.70;;;0.30;;
66966;SDS011;53900;51.468;-2.586;2024-01-30T03:17:45;0.65;;;0.20;;
66966;SDS011;53900;51.468;-2.586;2024-01-30T03:20:10;0.85;;;0.20;;
66966;SDS011;53900;51.468;-2.586;2024-01-30T03:22:36;1.80;;;0.40;;
66966;SDS011;53900;51.468;-2.586;2024-01-30T03:25:01;0.95;;;0.63;;
66966;SDS011;53900;51.468;-2.586;2024-01-30T03:27:26;2.25;;;0.20;;
66966;SDS011;53900;51.468;-2.586;2024-01-30T03:29:51;0.63;;;0.25;;
66966;SDS011;53900;51.468;-2.586;2024-01-30T03:32:17;1.40;;;0.90;;
66966;SDS011;53900;51.468;-2.586;2024-01-30T03:34:42;3.30;;;0.50;;
66966;SDS011;53900;51.468;-2.586;2024-01-30T03:37:07;0.55;;;0.32;;
66966;SDS011;53900;51.468;-2.586;2024-01-30T03:39:33;1.15;;;0.45;;
66966;SDS011;53900;51.468;-2.586;2024-01-30T03:41:58;0.35;;;0.30;;
66966;SDS011;53900;51.468;-2.586;2024-01-30T03:44:23;0.77;;;0.40;;
66966;SDS011;53900;51.468;-2.586;2024-01-30T03:46:48;0.38;;;0.30;;
66966;SDS011;53900;51.468;-2.586;2024-01-30T03:49:14;3.15;;;0.40;;
66966;SDS011;53900;51.468;-2.586;2024-01-30T03:51:39;0.82;;;0.40;;
66966;SDS011;53900;51.468;-2.586;2024-01-30T03:54:04;1.52;;;0.40;;
66966;SDS011;53900;51.468;-2.586;2024-01-30T03:56:29;0.45;;;0.30;;
66966;SDS011;53900;51.468;-2.586;2024-01-30T03:58:55;1.02;;;0.20;;
66966;SDS011;53900;51.468;-2.586;2024-01-30T04:01:21;2.40;;;0.30;;
66966;SDS011;53900;51.468;-2.586;2024-01-30T04:03:46;0.98;;;0.40;;
66966;SDS011;53900;51.468;-2.586;2024-01-30T04:06:11;1.02;;;0.28;;
66966;SDS011;53900;51.468;-2.586;2024-01-30T04:08:37;1.60;;;0.52;;
66966;SDS011;53900;51.468;-2.586;2024-01-30T04:11:03;2.92;;;0.30;;
66966;SDS011;53900;51.468;-2.586;2024-01-30T04:13:28;1.75;;;0.10;;
66966;SDS011;53900;51.468;-2.586;2024-01-30T04:15:53;1.10;;;0.40;;
66966;SDS011;53900;51.468;-2.586;2024-01-30T04:18:20;1.98;;;0.40;;
66966;SDS011;53900;51.468;-2.586;2024-01-30T04:20:45;1.13;;;0.40;;
66966;SDS011;53900;51.468;-2.586;2024-01-30T04:23:10;2.05;;;0.50;;
66966;SDS011;53900;51.468;-2.586;2024-01-30T04:25:36;2.70;;;0.32;;
66966;SDS011;53900;51.468;-2.586;2024-01-30T04:28:01;1.52;;;0.32;;
66966;SDS011;53900;51.468;-2.586;2024-01-30T04:30:26;2.78;;;0.43;;
66966;SDS011;53900;51.468;-2.586;2024-01-30T04:32:51;1.05;;;0.40;;
66966;SDS011;53900;51.468;-2.586;2024-01-30T04:35:16;0.40;;;0.40;;
66966;SDS011;53900;51.468;-2.586;2024-01-30T04:37:42;1.42;;;0.40;;
66966;SDS011;53900;51.468;-2.586;2024-01-30T04:40:07;0.20;;;0.20;;
66966;SDS011;53900;51.468;-2.586;2024-01-30T04:42:33;1.65;;;0.40;;
66966;SDS011;53900;51.468;-2.586;2024-01-30T04:44:58;1.50;;;0.47;;
66966;SDS011;53900;51.468;-2.586;2024-01-30T04:47:23;4.32;;;0.52;;
66966;SDS011;53900;51.468;-2.586;2024-01-30T04:49:50;2.70;;;0.50;;
66966;SDS011;53900;51.468;-2.586;2024-01-30T04:52:15;0.65;;;0.40;;
66966;SDS011;53900;51.468;-2.586;2024-01-30T04:54:41;2.22;;;0.32;;
66966;SDS011;53900;51.468;-2.586;2024-01-30T04:57:06;1.55;;;0.50;;
66966;SDS011;53900;51.468;-2.586;2024-01-30T04:59:34;6.20;;;0.52;;
66966;SDS011;53900;51.468;-2.586;2024-01-30T05:02:00;1.15;;;0.45;;
66966;SDS011;53900;51.468;-2.586;2024-01-30T05:04:25;1.80;;;0.45;;
66966;SDS011;53900;51.468;-2.586;2024-01-30T05:06:50;0.47;;;0.30;;
66966;SDS011;53900;51.468;-2.586;2024-01-30T05:09:15;0.63;;;0.35;;
66966;SDS011;53900;51.468;-2.586;2024-01-30T05:11:41;2.63;;;0.50;;
66966;SDS011;53900;51.468;-2.586;2024-01-30T05:14:06;2.10;;;0.70;;
66966;SDS011;53900;51.468;-2.586;2024-01-30T05:16:32;0.70;;;0.45;;
66966;SDS011;53900;51.468;-2.586;2024-01-30T05:18:58;1.75;;;0.47;;
66966;SDS011;53900;51.468;-2.586;2024-01-30T05:21:23;1.27;;;0.40;;
66966;SDS011;53900;51.468;-2.586;2024-01-30T05:23:48;1.27;;;0.55;;
66966;SDS011;53900;51.468;-2.586;2024-01-30T05:26:13;4.43;;;0.40;;
66966;SDS011;53900;51.468;-2.586;2024-01-30T05:28:39;2.60;;;0.70;;
66966;SDS011;53900;51.468;-2.586;2024-01-30T05:31:04;1.05;;;0.50;;
66966;SDS011;53900;51.468;-2.586;2024-01-30T05:33:29;3.80;;;0.50;;
66966;SDS011;53900;51.468;-2.586;2024-01-30T05:35:54;1.60;;;0.70;;
66966;SDS011;53900;51.468;-2.586;2024-01-30T05:38:20;3.83;;;0.55;;
66966;SDS011;53900;51.468;-2.586;2024-01-30T05:40:45;3.88;;;0.88;;
66966;SDS011;53900;51.468;-2.586;2024-01-30T05:43:10;5.63;;;0.77;;
66966;SDS011;53900;51.468;-2.586;2024-01-30T05:45:36;5.55;;;0.68;;
66966;SDS011;53900;51.468;-2.586;2024-01-30T05:48:01;5.07;;;2.45;;
66966;SDS011;53900;51.468;-2.586;2024-01-30T05:50:26;4.28;;;1.00;;
66966;SDS011;53900;51.468;-2.586;2024-01-30T05:52:52;2.90;;;0.88;;
66966;SDS011;53900;51.468;-2.586;2024-01-30T05:55:17;4.75;;;0.90;;
66966;SDS011;53900;51.468;-2.586;2024-01-30T05:57:42;4.53;;;0.80;;
66966;SDS011;53900;51.468;-2.586;2024-01-30T06:00:08;5.05;;;1.05;;
66966;SDS011;53900;51.468;-2.586;2024-01-30T06:02:33;2.63;;;0.70;;
66966;SDS011;53900;51.468;-2.586;2024-01-30T06:04:59;4.47;;;0.95;;
66966;SDS011;53900;51.468;-2.586;2024-01-30T06:07:24;3.58;;;0.98;;
66966;SDS011;53900;51.468;-2.586;2024-01-30T06:09:49;7.38;;;1.40;;
66966;SDS011;53900;51.468;-2.586;2024-01-30T06:12:14;6.43;;;1.23;;
66966;SDS011;53900;51.468;-2.586;2024-01-30T06:14:40;4.32;;;1.60;;
66966;SDS011;53900;51.468;-2.586;2024-01-30T06:17:07;7.28;;;1.25;;
66966;SDS011;53900;51.468;-2.586;2024-01-30T06:19:32;12.93;;;1.77;;
66966;SDS011;53900;51.468;-2.586;2024-01-30T06:21:57;7.45;;;2.00;;
66966;SDS011;53900;51.468;-2.586;2024-01-30T06:24:23;7.13;;;2.85;;
66966;SDS011;53900;51.468;-2.586;2024-01-30T06:26:48;15.15;;;2.50;;
66966;SDS011;53900;51.468;-2.586;2024-01-30T06:29:13;7.80;;;2.20;;
66966;SDS011;53900;51.468;-2.586;2024-01-30T06:31:40;14.52;;;2.42;;
66966;SDS011;53900;51.468;-2.586;2024-01-30T06:34:06;7.72;;;2.22;;
66966;SDS011;53900;51.468;-2.586;2024-01-30T06:36:31;12.48;;;2.72;;
66966;SDS011;53900;51.468;-2.586;2024-01-30T06:38:57;11.15;;;2.35;;
66966;SDS011;53900;51.468;-2.586;2024-01-30T06:41:22;9.30;;;2.40;;
66966;SDS011;53900;51.468;-2.586;2024-01-30T06:43:47;11.00;;;2.50;;
66966;SDS011;53900;51.468;-2.586;2024-01-30T06:46:12;11.65;;;2.33;;
66966;SDS011;53900;51.468;-2.586;2024-01-30T06:48:38;8.30;;;2.10;;
66966;SDS011;53900;51.468;-2.586;2024-01-30T06:51:05;10.15;;;2.25;;
66966;SDS011;53900;51.468;-2.586;2024-01-30T06:53:30;11.70;;;2.35;;
66966;SDS011;53900;51.468;-2.586;2024-01-30T06:55:55;11.20;;;2.60;;
66966;SDS011;53900;51.468;-2.586;2024-01-30T06:58:21;9.88;;;2.28;;
66966;SDS011;53900;51.468;-2.586;2024-01-30T07:00:46;12.68;;;2.50;;
66966;SDS011;53900;51.468;-2.586;2024-01-30T07:03:11;8.40;;;2.35;;
66966;SDS011;53900;51.468;-2.586;2024-01-30T07:05:36;13.18;;;2.45;;
66966;SDS011;53900;51.468;-2.586;2024-01-30T07:08:02;12.00;;;2.42;;
66966;SDS011;53900;51.468;-2.586;2024-01-30T07:10:27;10.13;;;2.22;;
66966;SDS011;53900;51.468;-2.586;2024-01-30T07:12:52;10.27;;;2.53;;
66966;SDS011;53900;51.468;-2.586;2024-01-30T07:15:17;8.18;;;2.03;;
66966;SDS011;53900;51.468;-2.586;2024-01-30T07:17:45;11.85;;;2.20;;
66966;SDS011;53900;51.468;-2.586;2024-01-30T07:20:11;13.57;;;2.50;;
66966;SDS011;53900;51.468;-2.586;2024-01-30T07:22:36;13.35;;;2.10;;
66966;SDS011;53900;51.468;-2.586;2024-01-30T07:25:01;10.27;;;3.22;;
66966;SDS011;53900;51.468;-2.586;2024-01-30T07:27:26;14.90;;;2.65;;
66966;SDS011;53900;51.468;-2.586;2024-01-30T07:29:52;12.45;;;2.05;;
66966;SDS011;53900;51.468;-2.586;2024-01-30T07:32:17;11.32;;;2.35;;
66966;SDS011;53900;51.468;-2.586;2024-01-30T07:34:43;16.75;;;2.80;;
66966;SDS011;53900;51.468;-2.586;2024-01-30T07:37:08;9.13;;;2.08;;
66966;SDS011;53900;51.468;-2.586;2024-01-30T07:39:34;8.13;;;1.98;;
66966;SDS011;53900;51.468;-2.586;2024-01-30T07:42:00;10.20;;;2.55;;
66966;SDS011;53900;51.468;-2.586;2024-01-30T07:44:26;14.15;;;2.42;;
66966;SDS011;53900;51.468;-2.586;2024-01-30T07:46:51;14.10;;;2.85;;
66966;SDS011;53900;51.468;-2.586;2024-01-30T07:49:16;9.00;;;2.35;;
66966;SDS011;53900;51.468;-2.586;2024-01-30T07:51:41;13.18;;;2.50;;
66966;SDS011;53900;51.468;-2.586;2024-01-30T07:54:08;9.98;;;1.90;;
66966;SDS011;53900;51.468;-2.586;2024-01-30T07:56:33;13.55;;;2.58;;
66966;SDS011;53900;51.468;-2.586;2024-01-30T07:58:58;13.05;;;2.70;;
66966;SDS011;53900;51.468;-2.586;2024-01-30T08:01:23;5.72;;;1.85;;
66966;SDS011;53900;51.468;-2.586;2024-01-30T08:03:49;7.68;;;2.22;;
66966;SDS011;53900;51.468;-2.586;2024-01-30T08:06:14;13.18;;;3.10;;
66966;SDS011;53900;51.468;-2.586;2024-01-30T08:08:39;7.43;;;2.28;;
66966;SDS011;53900;51.468;-2.586;2024-01-30T08:11:04;9.20;;;2.35;;
66966;SDS011;53900;51.468;-2.586;2024-01-30T08:13:30;8.13;;;2.42;;
66966;SDS011;53900;51.468;-2.586;2024-01-30T08:15:55;8.38;;;2.50;;
66966;SDS011;53900;51.468;-2.586;2024-01-30T08:18:20;14.00;;;2.22;;
66966;SDS011;53900;51.468;-2.586;2024-01-30T08:20:46;7.97;;;2.30;;
66966;SDS011;53900;51.468;-2.586;2024-01-30T08:23:11;10.10;;;2.13;;
66966;SDS011;53900;51.468;-2.586;2024-01-30T08:25:36;13.77;;;2.63;;
66966;SDS011;53900;51.468;-2.586;2024-01-30T08:28:02;11.48;;;2.47;;
66966;SDS011;53900;51.468;-2.586;2024-01-30T08:30:27;14.02;;;2.58;;
66966;SDS011;53900;51.468;-2.586;2024-01-30T08:32:52;10.85;;;1.80;;
66966;SDS011;53900;51.468;-2.586;2024-01-30T08:35:17;9.52;;;2.40;;
66966;SDS011;53900;51.468;-2.586;2024-01-30T08:37:43;8.18;;;1.95;;
66966;SDS011;53900;51.468;-2.586;2024-01-30T08:40:08;14.93;;;2.35;;
66966;SDS011;53900;51.468;-2.586;2024-01-30T08:42:34;7.80;;;2.42;;
66966;SDS011;53900;51.468;-2.586;2024-01-30T08:44:59;9.98;;;2.25;;
66966;SDS011;53900;51.468;-2.586;2024-01-30T08:47:24;11.02;;;2.30;;
66966;SDS011;53900;51.468;-2.586;2024-01-30T08:49:50;7.53;;;2.17;;
66966;SDS011;53900;51.468;-2.586;2024-01-30T08:52:15;12.38;;;2.25;;
66966;SDS011;53900;51.468;-2.586;2024-01-30T08:54:40;22.27;;;2.88;;
66966;SDS011;53900;51.468;-2.586;2024-01-30T08:57:06;11.30;;;2.10;;
66966;SDS011;53900;51.468;-2.586;2024-01-30T08:59:31;8.80;;;2.85;;
66966;SDS011;53900;51.468;-2.586;2024-01-30T09:01:56;8.73;;;2.17;;
66966;SDS011;53900;51.468;-2.586;2024-01-30T09:04:23;6.65;;;2.22;;
66966;SDS011;53900;51.468;-2.586;2024-01-30T09:06:48;15.40;;;2.40;;
66966;SDS011;53900;51.468;-2.586;2024-01-30T09:09:14;7.68;;;2.05;;
66966;SDS011;53900;51.468;-2.586;2024-01-30T09:11:39;11.57;;;1.77;;
66966;SDS011;53900;51.468;-2.586;2024-01-30T09:14:04;8.13;;;1.85;;
66966;SDS011;53900;51.468;-2.586;2024-01-30T09:16:30;11.48;;;1.73;;
66966;SDS011;53900;51.468;-2.586;2024-01-30T09:18:55;13.18;;;2.10;;
66966;SDS011;53900;51.468;-2.586;2024-01-30T09:21:20;8.15;;;1.95;;
66966;SDS011;53900;51.468;-2.586;2024-01-30T09:23:45;8.35;;;1.73;;
66966;SDS011;53900;51.468;-2.586;2024-01-30T09:26:11;12.07;;;2.20;;
66966;SDS011;53900;51.468;-2.586;2024-01-30T09:28:37;8.43;;;1.98;;
66966;SDS011;53900;51.468;-2.586;2024-01-30T09:31:02;11.02;;;1.60;;
66966;SDS011;53900;51.468;-2.586;2024-01-30T09:33:28;9.00;;;1.65;;
66966;SDS011;53900;51.468;-2.586;2024-01-30T09:35:53;8.20;;;1.83;;
66966;SDS011;53900;51.468;-2.586;2024-01-30T09:38:18;14.60;;;2.00;;
66966;SDS011;53900;51.468;-2.586;2024-01-30T09:40:44;12.88;;;2.13;;
66966;SDS011;53900;51.468;-2.586;2024-01-30T09:43:10;6.97;;;1.92;;
66966;SDS011;53900;51.468;-2.586;2024-01-30T09:45:36;11.35;;;2.30;;
66966;SDS011;53900;51.468;-2.586;2024-01-30T09:48:02;8.90;;;1.63;;
66966;SDS011;53900;51.468;-2.586;2024-01-30T09:50:28;7.50;;;1.58;;
66966;SDS011;53900;51.468;-2.586;2024-01-30T09:52:55;10.40;;;1.48;;
66966;SDS011;53900;51.468;-2.586;2024-01-30T09:55:21;11.55;;;2.28;;
66966;SDS011;53900;51.468;-2.586;2024-01-30T09:57:47;6.60;;;1.85;;
66966;SDS011;53900;51.468;-2.586;2024-01-30T10:00:12;11.77;;;2.30;;
66966;SDS011;53900;51.468;-2.586;2024-01-30T10:02:38;8.10;;;1.52;;
66966;SDS011;53900;51.468;-2.586;2024-01-30T10:05:04;11.57;;;2.00;;
66966;SDS011;53900;51.468;-2.586;2024-01-30T10:07:29;8.95;;;1.90;;
66966;SDS011;53900;51.468;-2.586;2024-01-30T10:09:55;8.05;;;1.63;;
66966;SDS011;53900;51.468;-2.586;2024-01-30T10:12:21;5.97;;;1.98;;
66966;SDS011;53900;51.468;-2.586;2024-01-30T10:14:46;8.07;;;1.83;;
66966;SDS011;53900;51.468;-2.586;2024-01-30T10:17:12;10.00;;;1.92;;
66966;SDS011;53900;51.468;-2.586;2024-01-30T10:19:38;5.45;;;1.55;;
66966;SDS011;53900;51.468;-2.586;2024-01-30T10:22:03;12.75;;;2.00;;
66966;SDS011;53900;51.468;-2.586;2024-01-30T10:24:29;8.60;;;1.73;;
66966;SDS011;53900;51.468;-2.586;2024-01-30T10:26:54;9.02;;;2.00;;
66966;SDS011;53900;51.468;-2.586;2024-01-30T10:29:20;9.85;;;3.15;;
66966;SDS011;53900;51.468;-2.586;2024-01-30T10:31:45;7.68;;;1.88;;
66966;SDS011;53900;51.468;-2.586;2024-01-30T10:34:10;8.95;;;1.38;;
66966;SDS011;53900;51.468;-2.586;2024-01-30T10:36:39;7.65;;;1.40;;
66966;SDS011;53900;51.468;-2.586;2024-01-30T10:39:06;8.77;;;1.88;;
66966;SDS011;53900;51.468;-2.586;2024-01-30T10:41:31;8.60;;;1.67;;
66966;SDS011;53900;51.468;-2.586;2024-01-30T10:44:09;6.70;;;1.30;;
66966;SDS011;53900;51.468;-2.586;2024-01-30T10:46:34;6.82;;;1.30;;
66966;SDS011;53900;51.468;-2.586;2024-01-30T10:49:00;7.07;;;1.40;;
66966;SDS011;53900;51.468;-2.586;2024-01-30T10:51:28;4.03;;;1.65;;
66966;SDS011;53900;51.468;-2.586;2024-01-30T10:53:54;7.68;;;2.63;;
66966;SDS011;53900;51.468;-2.586;2024-01-30T10:56:23;7.38;;;2.42;;
66966;SDS011;53900;51.468;-2.586;2024-01-30T10:58:50;5.72;;;2.53;;
66966;SDS011;53900;51.468;-2.586;2024-01-30T11:01:17;7.30;;;2.35;;
66966;SDS011;53900;51.468;-2.586;2024-01-30T11:03:42;10.20;;;1.40;;
66966;SDS011;53900;51.468;-2.586;2024-01-30T11:06:10;5.07;;;1.80;;
66966;SDS011;53900;51.468;-2.586;2024-01-30T11:08:35;8.27;;;2.17;;
66966;SDS011;53900;51.468;-2.586;2024-01-30T11:11:01;14.60;;;2.92;;
66966;SDS011;53900;51.468;-2.586;2024-01-30T11:13:29;4.85;;;1.65;;
66966;SDS011;53900;51.468;-2.586;2024-01-30T11:15:55;7.78;;;1.70;;
66966;SDS011;53900;51.468;-2.586;2024-01-30T11:18:28;12.32;;;2.13;;
66966;SDS011;53900;51.468;-2.586;2024-01-30T11:20:55;5.55;;;2.05;;
66966;SDS011;53900;51.468;-2.586;2024-01-30T11:23:22;10.43;;;1.63;;
66966;SDS011;53900;51.468;-2.586;2024-01-30T11:25:47;9.93;;;1.75;;
66966;SDS011;53900;51.468;-2.586;2024-01-30T11:28:13;5.03;;;1.50;;
66966;SDS011;53900;51.468;-2.586;2024-01-30T11:30:39;8.13;;;1.70;;
66966;SDS011;53900;51.468;-2.586;2024-01-30T11:33:05;7.80;;;1.45;;
66966;SDS011;53900;51.468;-2.586;2024-01-30T11:35:34;5.85;;;1.35;;
66966;SDS011;53900;51.468;-2.586;2024-01-30T11:38:00;4.80;;;1.30;;
66966;SDS011;53900;51.468;-2.586;2024-01-30T11:40:27;5.40;;;1.25;;
66966;SDS011;53900;51.468;-2.586;2024-01-30T11:42:52;9.18;;;1.40;;
66966;SDS011;53900;51.468;-2.586;2024-01-30T11:45:18;7.07;;;1.38;;
66966;SDS011;53900;51.468;-2.586;2024-01-30T11:47:43;5.75;;;1.77;;
66966;SDS011;53900;51.468;-2.586;2024-01-30T11:50:08;4.30;;;1.60;;
66966;SDS011;53900;51.468;-2.586;2024-01-30T11:52:35;8.30;;;1.33;;
66966;SDS011;53900;51.468;-2.586;2024-01-30T11:55:01;13.23;;;3.25;;
66966;SDS011;53900;51.468;-2.586;2024-01-30T11:57:27;9.45;;;2.17;;
66966;SDS011;53900;51.468;-2.586;2024-01-30T11:59:53;6.93;;;1.90;;
66966;SDS011;53900;51.468;-2.586;2024-01-30T12:02:18;12.43;;;1.73;;
66966;SDS011;53900;51.468;-2.586;2024-01-30T12:04:43;7.90;;;1.77;;
66966;SDS011;53900;51.468;-2.586;2024-01-30T12:07:09;5.53;;;1.35;;
66966;SDS011;53900;51.468;-2.586;2024-01-30T12:09:34;7.15;;;1.17;;
66966;SDS011;53900;51.468;-2.586;2024-01-30T12:11:59;7.75;;;1.30;;
66966;SDS011;53900;51.468;-2.586;2024-01-30T12:14:25;5.85;;;1.10;;
66966;SDS011;53900;51.468;-2.586;2024-01-30T12:16:51;4.63;;;1.33;;
66966;SDS011;53900;51.468;-2.586;2024-01-30T12:19:26;5.25;;;1.13;;
66966;SDS011;53900;51.468;-2.586;2024-01-30T12:21:55;11.02;;;1.42;;
66966;SDS011;53900;51.468;-2.586;2024-01-30T12:24:21;7.90;;;2.75;;
66966;SDS011;53900;51.468;-2.586;2024-01-30T12:26:46;18.58;;;7.30;;
66966;SDS011;53900;51.468;-2.586;2024-01-30T12:29:12;9.38;;;4.20;;
66966;SDS011;53900;51.468;-2.586;2024-01-30T12:31:39;12.63;;;2.17;;
66966;SDS011;53900;51.468;-2.586;2024-01-30T12:34:06;7.18;;;1.40;;
66966;SDS011;53900;51.468;-2.586;2024-01-30T12:36:32;5.05;;;1.52;;
66966;SDS011;53900;51.468;-2.586;2024-01-30T12:38:57;8.30;;;1.23;;
66966;SDS011;53900;51.468;-2.586;2024-01-30T12:41:23;11.00;;;1.52;;
66966;SDS011;53900;51.468;-2.586;2024-01-30T12:43:53;6.43;;;1.20;;
66966;SDS011;53900;51.468;-2.586;2024-01-30T12:46:18;4.70;;;1.25;;
66966;SDS011;53900;51.468;-2.586;2024-01-30T12:48:43;4.13;;;0.63;;
66966;SDS011;53900;51.468;-2.586;2024-01-30T12:51:08;3.20;;;0.60;;
66966;SDS011;53900;51.468;-2.586;2024-01-30T12:53:34;1.02;;;0.40;;
66966;SDS011;53900;51.468;-2.586;2024-01-30T12:55:59;0.30;;;0.30;;
66966;SDS011;53900;51.468;-2.586;2024-01-30T12:58:24;1.17;;;0.40;;
66966;SDS011;53900;51.468;-2.586;2024-01-30T13:00:49;0.52;;;0.38;;
66966;SDS011;53900;51.468;-2.586;2024-01-30T13:03:15;2.90;;;0.43;;
66966;SDS011;53900;51.468;-2.586;2024-01-30T13:05:40;0.80;;;0.30;;
66966;SDS011;53900;51.468;-2.586;2024-01-30T13:08:05;1.55;;;0.60;;
66966;SDS011;53900;51.468;-2.586;2024-01-30T13:10:30;1.25;;;0.40;;
66966;SDS011;53900;51.468;-2.586;2024-01-30T13:12:56;3.42;;;0.52;;
66966;SDS011;53900;51.468;-2.586;2024-01-30T13:15:21;0.38;;;0.22;;
66966;SDS011;53900;51.468;-2.586;2024-01-30T13:17:48;0.70;;;0.25;;
66966;SDS011;53900;51.468;-2.586;2024-01-30T13:20:13;1.20;;;0.40;;
66966;SDS011;53900;51.468;-2.586;2024-01-30T13:22:42;1.08;;;0.45;;
66966;SDS011;53900;51.468;-2.586;2024-01-30T13:25:08;0.40;;;0.40;;
66966;SDS011;53900;51.468;-2.586;2024-01-30T13:27:33;0.30;;;0.30;;
66966;SDS011;53900;51.468;-2.586;2024-01-30T13:29:58;1.10;;;0.40;;
66966;SDS011;53900;51.468;-2.586;2024-01-30T13:32:23;1.40;;;0.40;;
66966;SDS011;53900;51.468;-2.586;2024-01-30T13:34:49;3.10;;;0.50;;
66966;SDS011;53900;51.468;-2.586;2024-01-30T13:37:17;0.50;;;0.45;;
66966;SDS011;53900;51.468;-2.586;2024-01-30T13:39:43;0.73;;;0.35;;
66966;SDS011;53900;51.468;-2.586;2024-01-30T13:42:08;0.43;;;0.30;;
66966;SDS011;53900;51.468;-2.586;2024-01-30T13:44:34;0.45;;;0.20;;
66966;SDS011;53900;51.468;-2.586;2024-01-30T13:47:00;3.00;;;0.50;;
66966;SDS011;53900;51.468;-2.586;2024-01-30T13:49:25;0.73;;;0.40;;
66966;SDS011;53900;51.468;-2.586;2024-01-30T13:51:50;3.55;;;0.75;;
66966;SDS011;53900;51.468;-2.586;2024-01-30T13:54:16;1.00;;;0.40;;
66966;SDS011;53900;51.468;-2.586;2024-01-30T13:56:41;0.45;;;0.40;;
66966;SDS011;53900;51.468;-2.586;2024-01-30T13:59:06;0.50;;;0.40;;
66966;SDS011;53900;51.468;-2.586;2024-01-30T14:01:32;4.85;;;0.68;;
66966;SDS011;53900;51.468;-2.586;2024-01-30T14:03:57;4.03;;;0.65;;
66966;SDS011;53900;51.468;-2.586;2024-01-30T14:06:22;3.33;;;0.90;;
66966;SDS011;53900;51.468;-2.586;2024-01-30T14:08:48;5.68;;;1.50;;
66966;SDS011;53900;51.468;-2.586;2024-01-30T14:11:13;5.10;;;1.40;;
66966;SDS011;53900;51.468;-2.586;2024-01-30T14:13:38;2.50;;;1.35;;
66966;SDS011;53900;51.468;-2.586;2024-01-30T14:16:04;7.13;;;0.93;;
66966;SDS011;53900;51.468;-2.586;2024-01-30T14:18:29;11.30;;;1.75;;
66966;SDS011;53900;51.468;-2.586;2024-01-30T14:20:54;3.05;;;1.10;;